Startpagina
METAR-TAF:

METAR-TAF

Vliegvelden :

Barquisimeto, Venezuela

breedte: 10-04N, lengte: 069-19W, hoogte: 613 m

Actueel weer

Dit bericht is 11 uur en het 16 minuten geleden gemaakt, om 22:00 UTC
Wind 2 kt uit het oosten
Temperatuur 29°C
Vochtigheid 58%
Druk 1012 hPa
Zicht 10 km of meer
Gebroken wolken op 1600 ft

METAR: SVBM 202200Z 09002KT 9999 BKN016 29/20 Q1012

Tijdstip: 05:16 (09:16 UTC)

Verwachting

Dit bericht is 15 uur en het 16 minuten geleden gemaakt, om 18:00 UTC
Verwachting geldig van 20 om 18 UTC tot 21 om 18 UTC
Wind 5 kt uit het oosten
Zicht 10 km of meer
Weinig wolken op 1600 ft
Verspreide wolken op 8000 ft
Wijzigt naar
van 20 om 20 UTC tot 21 om 00 UTC
Gebroken wolken op 1300 ft

TAF: SVBM 201800Z 2018/2118 09005KT 9999 FEW016 SCT080 TX33/2118Z TN21/2108Z BECMG 2020/2100 10004 BKN013

Waarnemingen en weersverwachtingen van meer dan 4000 vliegvelden (METAR en TAF).

De beschikbare stations zijn de gele en rode punten op de kaart.

Ga met uw muis naar het station om de naam te zien.

Klik dan om waarnemingen en weersverwachtingen te zien.

kaart wijzigen: klik op de groene knoppen met een zwart kruis om in te zoomen, op de groene knop met een streepje om uit te zoomen of op de groene pijlen voor aangrenzende kaarten.


METAR-TAF: